Main page
METAR-TAF:

METAR-TAF

Airports :

Jacksons International Airport

Port Moresby, Papua New Guinea

latitude: 09-26S, longitude: 147-13E, elevation: 38 m

Current weather observation

The report was made 59 minutes ago, at 19:00 UTC
Wind 5 kt from the East/Southeast
Temperature 22°C
Humidity 100%
Pressure 1011 hPa
Visibility 10 km or more
Few clouds at a height of 4000 ft

METAR: AYPY 231900Z 12005KT 9999 FEW040 22/22 Q1011

Time: 05:59 (19:59 UTC)

Forecast

The report was made 9 hours and 4 minutes ago, at 10:55 UTC
Forecast valid from 23 at 12 UTC to 24 at 12 UTC
Wind 15 kt from the South
Visibility 10 km or more
Scattered clouds at a height of 2500 ft
Broken clouds at a height of 12000 ft

TAF: AYPY 231055Z 2312/2412 17015KT 9999 SCT025 BKN120

Weather observations and forecasts of more than 4000 airports (METAR and TAF reports).

The available stations are represented by yellow and red dots on the map.

Hover mouse over dot to see the name of the station.

Then click to see weather observations and forecasts.

To change the map : click on the green buttons with a black cross to zoom in, on the green button with a dash to zoom out, or on the green arrows for adjacent maps.


METAR-TAF: